Time;durP1;ratioP1;P1;durP2;ratioP2;P2;SDS_P1;SDS_P2;PMS_P1;PMS_P2;Temp;Humidity;BMP_temperature;BMP_pressure;BME280_temperature;BME280_humidity;BME280_pressure;Samples;Min_cycle;Max_cycle;Signal;HPM_P1;HPM_P2
2023/11/11 00:00:37;;;;;;;3.10;1.97;;;;;;;-141.84;94.97;27410.06;4983306;28;20238;-66
2023/11/11 00:03:07;;;;;;;5.00;2.27;;;;;;;-141.84;93.13;22949.00;4983766;28;20583;-65
2023/11/11 00:05:36;;;;;;;3.83;1.87;;;;;;;-141.84;96.01;29552.84;4976213;28;20206;-64
2023/11/11 00:08:04;;;;;;;2.50;1.77;;;;;;;-141.84;96.96;34162.22;4994757;28;20325;-63
2023/11/11 00:10:33;;;;;;;2.00;1.80;;;;;;;-141.84;96.39;32245.22;5002573;28;20237;-63
2023/11/11 00:13:03;;;;;;;3.20;1.77;;;;;;;-141.84;96.98;34590.59;4997005;28;20701;-63
2023/11/11 00:15:35;;;;;;;5.13;1.83;;;;;;;-141.84;95.64;29084.28;4971553;28;20254;-63
2023/11/11 00:18:03;;;;;;;4.77;1.70;;;;;;;-141.84;97.11;35518.94;4982690;28;20222;-62
2023/11/11 00:20:32;;;;;;;3.77;1.90;;;;;;;-141.84;96.92;37568.19;4983649;28;20227;-62
2023/11/11 00:23:05;;;;;;;2.70;1.70;;;;;;;-141.84;96.45;32239.13;4983061;28;20603;-64
2023/11/11 00:25:34;;;;;;;2.63;1.80;;;;;;;-141.84;95.63;28860.19;4955443;28;20275;-63
2023/11/11 00:28:02;;;;;;;1.97;1.63;;;;;;;-141.84;96.69;34845.63;4963985;28;20231;-64
2023/11/11 00:30:32;;;;;;;2.23;1.53;;;;;;;-141.84;97.02;34829.28;4963733;28;20228;-64
2023/11/11 00:33:01;;;;;;;1.87;1.63;;;;;;;-141.84;98.66;45489.41;4983476;28;20576;-63
2023/11/11 00:35:29;;;;;;;3.50;1.77;;;;;;;-141.84;99.82;52828.09;4981230;28;20310;-64
2023/11/11 00:37:58;;;;;;;2.90;1.80;;;;;;;-141.84;100.00;54927.34;4983157;28;20306;-62
2023/11/11 00:40:26;;;;;;;2.77;1.83;;;;;;;-141.84;99.62;52303.44;4982829;28;20746;-65
2023/11/11 00:42:55;;;;;;;3.37;1.80;;;;;;;-141.84;93.94;26752.38;4983838;28;20660;-64
2023/11/11 00:45:24;;;;;;;2.00;1.80;;;;;;;-141.84;92.00;21684.06;4995818;28;20284;-63
2023/11/11 00:47:54;;;;;;;3.53;1.97;;;;;;;-141.84;92.14;21584.44;5003238;28;20238;-63
2023/11/11 00:50:22;;;;;;;3.30;2.00;;;;;;;-141.84;90.77;20691.91;4988030;28;20680;-64
2023/11/11 00:52:51;;;;;;;1.70;1.60;;;;;;;-141.84;93.54;23518.56;4982968;28;20286;-62
2023/11/11 00:55:20;;;;;;;2.40;1.87;;;;;;;-141.84;94.06;24916.38;4983305;28;20562;-62
2023/11/11 00:57:48;;;;;;;3.33;1.80;;;;;;;-141.84;92.84;22479.16;4978738;28;20322;-62
2023/11/11 01:00:20;;;;;;;4.80;2.00;;;;;;;-141.84;91.87;21450.22;4983607;28;20301;-63
2023/11/11 01:02:49;;;;;;;1.77;1.60;;;;;;;-141.84;92.40;22312.41;4983534;28;20274;-63
2023/11/11 01:05:19;;;;;;;3.57;1.90;;;;;;;-141.84;92.47;22017.53;4983304;28;20246;-63
2023/11/11 01:07:48;;;;;;;2.40;1.70;;;;;;;-141.84;92.90;22475.09;4976732;28;20319;-62
2023/11/11 01:10:18;;;;;;;2.60;1.80;;;;;;;-141.84;94.78;25899.41;4982979;28;20246;-63
2023/11/11 01:12:47;;;;;;;3.63;1.93;;;;;;;-141.84;96.01;29952.22;4984056;28;20238;-63
2023/11/11 01:15:15;;;;;;;3.63;2.33;;;;;;;-141.84;96.80;34988.44;4979214;28;20217;-63
2023/11/11 01:17:44;;;;;;;3.70;2.00;;;;;;;-141.84;97.49;37357.91;4956745;28;20372;-64
2023/11/11 01:20:13;;;;;;;3.50;1.87;;;;;;;-141.84;97.80;40872.88;4963250;28;20236;-63
2023/11/11 01:22:43;;;;;;;2.83;1.87;;;;;;;-141.84;99.24;49157.03;4963746;28;20322;-63
2023/11/11 01:25:12;;;;;;;4.20;2.00;;;;;;;-141.84;100.00;54927.34;4980095;28;20285;-63
2023/11/11 01:27:41;;;;;;;3.30;1.80;;;;;;;-141.84;99.08;48894.97;4982166;28;20237;-63
2023/11/11 01:30:10;;;;;;;3.53;2.00;;;;;;;-141.84;98.83;47846.78;4988869;28;20422;-64
2023/11/11 01:32:39;;;;;;;3.47;1.90;;;;;;;-141.84;99.16;49943.41;4983348;28;20583;-63
2023/11/11 01:35:08;;;;;;;3.13;1.83;;;;;;;-141.84;100.00;56239.94;4992204;28;20223;-64
2023/11/11 01:37:37;;;;;;;5.33;2.00;;;;;;;-141.84;99.32;52041.16;4976653;28;20247;-63
2023/11/11 01:40:08;;;;;;;3.70;2.10;;;;;;;-141.84;98.19;44965.75;4987479;28;20226;-64
2023/11/11 01:42:36;;;;;;;3.23;2.23;;;;;;;-141.84;97.24;38501.31;4999571;28;20330;-63
2023/11/11 01:45:06;;;;;;;4.07;2.00;;;;;;;-141.84;98.42;45489.41;4982683;28;20235;-62
2023/11/11 01:47:36;;;;;;;3.33;1.63;;;;;;;-141.84;99.34;49943.41;4975435;28;20228;-62
2023/11/11 01:50:05;;;;;;;4.50;2.13;;;;;;;-141.84;100.00;55452.34;4983751;28;20243;-63
2023/11/11 01:52:34;;;;;;;3.23;2.00;;;;;;;-141.84;100.00;61757.66;4993219;28;20714;-64
2023/11/11 01:55:04;;;;;;;2.00;1.70;;;;;;;-141.84;100.00;66493.19;5006308;28;20235;-63
2023/11/11 01:57:34;;;;;;;3.73;2.00;;;;;;;-141.84;100.00;70707.31;4997839;28;20338;-64
2023/11/11 02:00:12;;;;;;;2.17;1.60;;;;;;;-141.84;100.00;70970.84;5006190;28;20226;-63
2023/11/11 02:02:41;;;;;;;3.13;1.90;;;;;;;-141.84;100.00;66756.44;5005898;28;20234;-63
2023/11/11 02:05:09;;;;;;;2.50;1.97;;;;;;;-141.84;100.00;66493.19;5005331;28;20288;-63
2023/11/11 02:07:39;;;;;;;2.90;2.10;;;;;;;-141.84;100.00;64914.06;4998924;28;20586;-63
2023/11/11 02:10:10;;;;;;;2.80;1.93;;;;;;;-141.84;100.00;63598.59;4988876;28;20235;-63
2023/11/11 02:12:39;;;;;;;3.77;2.13;;;;;;;-141.84;99.57;53615.19;4985690;28;20235;-63
2023/11/11 02:15:10;;;;;;;3.20;1.80;;;;;;;-141.84;98.94;48632.88;4984158;28;20222;-63
2023/11/11 02:17:40;;;;;;;4.00;1.80;;;;;;;-141.84;99.02;49943.41;4959546;28;20212;-63
2023/11/11 02:20:11;;;;;;;4.27;2.00;;;;;;;-141.84;98.45;49681.28;4966160;28;20247;-62
2023/11/11 02:22:40;;;;;;;3.33;1.90;;;;;;;-141.84;95.27;29512.09;4966147;28;20235;-63
2023/11/11 02:25:10;;;;;;;2.27;1.80;;;;;;;-141.84;95.74;30011.31;4982539;28;20294;-63
2023/11/11 02:27:39;;;;;;;3.07;1.77;;;;;;;-141.84;96.05;31698.88;4977962;28;20223;-63
2023/11/11 02:30:11;;;;;;;2.10;1.87;;;;;;;-141.84;96.40;33860.31;4985576;28;20215;-63
2023/11/11 02:32:41;;;;;;;3.13;1.90;;;;;;;-141.84;92.83;23307.00;4986301;28;20211;-63
2023/11/11 02:35:09;;;;;;;3.33;1.77;;;;;;;-141.84;91.49;21342.47;4985549;28;20293;-63
2023/11/11 02:37:38;;;;;;;4.63;2.10;;;;;;;-141.84;93.82;24126.84;4977501;28;20262;-62
2023/11/11 02:40:12;;;;;;;2.03;1.57;;;;;;;-141.84;93.32;24226.56;4985498;28;20321;-63
2023/11/11 02:42:41;;;;;;;2.97;1.80;;;;;;;-141.84;92.99;23345.66;4985160;28;20233;-63
2023/11/11 02:45:10;;;;;;;2.10;1.90;;;;;;;-141.84;92.38;22448.66;4984872;28;20235;-62
2023/11/11 02:47:39;;;;;;;3.27;1.80;;;;;;;-141.84;91.59;21625.09;4978498;28;20254;-62
2023/11/11 02:50:08;;;;;;;1.63;1.50;;;;;;;-141.84;90.45;20661.44;4985286;28;20254;-64
2023/11/11 02:52:38;;;;;;;4.87;1.60;;;;;;;-141.84;91.12;21074.09;4985248;28;20235;-63
2023/11/11 02:55:09;;;;;;;3.00;1.60;;;;;;;-141.84;90.88;21104.59;4985241;28;20235;-63
2023/11/11 02:57:38;;;;;;;3.60;1.40;;;;;;;-141.84;91.39;21192.03;4977901;28;20714;-66
2023/11/11 03:00:10;;;;;;;2.70;1.50;;;;;;;-141.84;90.31;20549.63;4985217;28;20211;-64
2023/11/11 03:02:39;;;;;;;1.83;1.50;;;;;;;-141.84;90.50;20632.97;4984635;28;20317;-63
2023/11/11 03:05:10;;;;;;;3.17;1.67;;;;;;;-141.84;90.80;20777.28;4984295;28;20596;-63
2023/11/11 03:07:38;;;;;;;3.20;1.50;;;;;;;-141.84;91.60;21501.06;4977903;28;20290;-63
2023/11/11 03:10:10;;;;;;;4.03;1.60;;;;;;;-141.84;91.61;21452.25;4985068;28;20318;-64
2023/11/11 03:12:39;;;;;;;3.20;1.87;;;;;;;-141.84;89.96;20425.63;4984036;28;20717;-63
2023/11/11 03:15:09;;;;;;;1.93;1.60;;;;;;;-141.84;90.63;20618.72;4982613;28;20242;-63
2023/11/11 03:17:38;;;;;;;2.27;1.60;;;;;;;-141.84;91.66;21379.06;4958385;28;20617;-63
2023/11/11 03:20:08;;;;;;;2.63;1.50;;;;;;;-141.84;92.81;22416.13;4965293;28;20251;-62
2023/11/11 03:22:37;;;;;;;2.03;1.70;;;;;;;-141.84;93.83;24338.47;4965631;28;20635;-63
2023/11/11 03:25:08;;;;;;;2.27;1.60;;;6.60;99.90;;;-141.84;94.60;26267.84;4980821;28;20294;-63
2023/11/11 03:27:38;;;;;;;3.73;1.90;;;;;;;-141.84;95.78;30184.50;4976591;28;20258;-64
2023/11/11 03:30:09;;;;;;;2.07;1.83;;;5.80;99.90;;;-141.84;96.61;33756.31;4984200;28;20293;-64
2023/11/11 03:32:37;;;;;;;2.30;1.93;;;6.40;99.90;;;-141.84;96.70;38397.16;4985159;28;20204;-62
2023/11/11 03:35:07;;;;;;;3.57;2.03;;;6.40;99.90;;;-141.84;94.75;28687.03;4984045;28;20321;-63
2023/11/11 03:37:35;;;;;;;3.80;2.27;;;6.40;99.90;;;-141.84;93.29;23252.06;4976725;28;20305;-63
2023/11/11 03:40:04;;;;;;;3.00;2.00;;;6.50;99.90;;;-141.84;95.27;27495.59;4984191;28;20310;-63
2023/11/11 03:42:32;;;;;;;2.00;1.70;;;6.40;99.90;;;-141.84;96.35;32239.13;4982569;28;20330;-62
2023/11/11 03:45:03;;;;;;;2.43;1.93;;;6.40;99.90;;;-141.84;97.62;41191.66;4974480;28;20211;-63
2023/11/11 03:47:32;;;;;;;3.30;2.27;;;6.40;99.90;;;-141.84;97.05;38374.69;4957649;28;20236;-63
2023/11/11 03:50:01;;;;;;;3.37;2.40;;;6.50;99.90;;;-141.84;92.98;24541.94;4975367;28;20288;-63
2023/11/11 03:52:30;;;;;;;3.50;2.00;;;6.50;99.90;;;-141.84;88.33;19927.66;4983947;28;20326;-63
2023/11/11 03:54:59;;;;;;;2.33;1.80;;;;;;;-141.84;88.75;19984.56;4984197;28;20705;-63
2023/11/11 03:57:27;;;;;;;2.70;2.10;;;6.80;99.90;;;-141.84;87.46;19752.88;4975741;28;20318;-63
2023/11/11 03:59:56;;;;;;;3.13;2.00;;;6.90;99.90;;;-141.84;88.56;19954.06;4984854;28;20208;-63
2023/11/11 04:02:26;;;;;;;2.20;1.63;;;6.90;99.90;;;-141.84;90.60;20624.84;4983138;28;20270;-62
2023/11/11 04:04:54;;;;;;;5.87;1.70;;;6.90;99.90;;;-141.84;90.62;21031.41;4984747;28;20238;-63
2023/11/11 04:07:22;;;;;;;2.23;1.70;;;6.90;99.90;;;-141.84;91.33;21098.50;4982193;28;20744;-62
2023/11/11 04:09:51;;;;;;;2.43;1.70;;;6.90;99.90;;;-141.84;92.82;22751.69;4981512;28;20227;-63
2023/11/11 04:12:19;;;;;;;3.67;1.90;;;6.90;99.90;;;-141.84;92.58;22477.13;4983327;28;20219;-64
2023/11/11 04:14:48;;;;;;;2.57;1.77;;;6.90;99.90;;;-141.84;92.52;22774.06;4983873;28;20204;-63
2023/11/11 04:17:16;;;;;;;2.97;1.80;;;6.90;99.90;;;-141.84;91.52;21411.59;4964650;28;20243;-63
2023/11/11 04:19:46;;;;;;;2.63;1.70;;;6.90;99.90;;;-141.84;92.41;22466.97;4956273;28;20875;-62
2023/11/11 04:22:14;;;;;;;2.30;1.80;;;6.90;99.90;;;-141.84;90.71;20950.09;4964159;28;20228;-62
2023/11/11 04:24:43;;;;;;;1.30;1.17;;;6.90;99.90;;;-141.84;90.81;20915.53;4977148;28;20331;-63
2023/11/11 04:27:11;;;;;;;2.87;1.90;;;6.90;99.90;;;-141.84;90.00;20504.91;4983323;28;20204;-63
2023/11/11 04:29:40;;;;;;;3.23;1.83;;;6.90;99.90;;;-141.84;90.73;20874.88;4975996;28;20203;-63
2023/11/11 04:32:08;;;;;;;3.37;1.70;;;7.00;99.90;;;-141.84;90.72;20866.75;4983103;28;20227;-63
2023/11/11 04:34:37;;;;;;;3.63;1.70;;;7.00;99.90;;;-141.84;91.92;21822.31;4983319;28;20785;-63
2023/11/11 04:37:07;;;;;;;3.83;2.33;;;6.90;99.90;;;-141.84;90.27;20663.47;4982970;28;20305;-63
2023/11/11 04:39:35;;;;;;;3.27;2.07;;;6.90;99.90;;;-141.84;91.54;21326.22;4976096;28;20282;-63
2023/11/11 04:42:04;;;;;;;3.03;1.70;;;6.90;99.90;;;-141.84;90.84;20958.22;4983740;28;20258;-63
2023/11/11 04:44:32;;;;;;;3.30;1.70;;;6.90;99.90;;;-141.84;91.60;21397.38;4982922;28;20305;-62
2023/11/11 04:47:00;;;;;;;2.60;1.80;;;6.90;99.90;;;-141.84;91.72;21751.16;4982990;28;20235;-63
2023/11/11 04:49:28;;;;;;;1.97;1.73;;;6.90;99.90;;;-141.84;92.17;22066.34;4969263;28;20583;-62
2023/11/11 04:51:57;;;;;;;1.80;1.50;;;6.90;99.90;;;-141.84;92.85;22826.97;4963730;28;20319;-63
2023/11/11 04:54:26;;;;;;;1.90;1.60;;;6.80;99.90;;;-141.84;91.26;21421.75;4964019;28;20270;-64
2023/11/11 04:56:55;;;;;;;2.93;1.60;;;6.80;99.90;;;-141.84;89.14;20240.66;4965083;28;20212;-64
2023/11/11 04:59:23;;;;;;;2.10;1.50;;;6.80;99.90;;;-141.84;89.09;20141.06;4979829;28;20231;-62
2023/11/11 05:01:53;;;;;;;4.73;1.90;;;6.50;99.90;;;-141.84;91.62;21405.50;4982913;28;20266;-62
2023/11/11 05:04:22;;;;;;;1.60;1.50;;;6.80;99.90;;;-141.84;90.26;20807.78;4983516;28;20235;-63
2023/11/11 05:06:51;;;;;;;2.33;1.90;;;6.80;99.90;;;-141.84;89.65;20311.78;4982817;28;20250;-62
2023/11/11 05:09:20;;;;;;;3.10;1.80;;;6.80;99.90;;;-141.84;88.62;19992.69;4983501;28;20218;-63
2023/11/11 05:11:50;;;;;;;2.37;1.60;;;6.80;99.90;;;-141.84;90.81;20683.78;4979821;28;20219;-62
2023/11/11 05:14:19;;;;;;;3.10;1.63;;;6.80;99.90;;;-141.84;93.28;23066.97;4982900;28;20730;-63
2023/11/11 05:16:52;;;;;;;3.30;2.07;;;6.70;99.90;;;-141.84;93.03;22975.44;4967650;28;20270;-63
2023/11/11 05:19:21;;;;;;;2.40;1.67;;;6.70;99.90;;;-141.84;93.51;23730.13;4966124;28;20301;-63
2023/11/11 05:21:49;;;;;;;2.13;1.50;;;6.70;99.90;;;-141.84;94.76;26717.78;4979618;28;20614;-64
2023/11/11 05:24:20;;;;;;;3.63;1.40;;;6.60;99.90;;;-141.84;94.58;26485.69;4983283;28;20309;-64
2023/11/11 05:26:50;;;;;;;2.53;2.10;;;6.50;99.90;;;-141.84;92.45;22829.00;4987455;28;20212;-63
2023/11/11 05:29:18;;;;;;;3.63;1.90;;;6.50;99.90;;;-141.84;91.37;21277.41;4967692;28;20266;-62
2023/11/11 05:31:47;;;;;;;3.27;1.90;;;6.40;99.90;;;-141.84;94.33;24912.28;4958931;28;20236;-63
2023/11/11 05:34:16;;;;;;;2.07;1.80;;;6.40;99.90;;;-141.84;94.67;26229.19;4966805;28;20782;-63
2023/11/11 05:36:44;;;;;;;2.90;1.73;;;6.30;99.90;;;-141.84;96.31;32418.53;4966948;28;20232;-63
2023/11/11 05:39:14;;;;;;;2.90;1.70;;;6.20;99.90;;;-141.84;95.90;30123.38;4967158;28;20307;-63
2023/11/11 05:41:42;;;;;;;2.47;1.97;;;6.20;99.90;;;-141.84;97.44;38039.81;4960535;28;21166;-63
2023/11/11 05:44:12;;;;;;;2.97;1.93;;;6.10;99.90;;;-141.84;97.23;37462.00;4981245;28;20247;-64
2023/11/11 05:46:40;;;;;;;4.90;1.90;;;6.00;99.90;;;-141.84;97.96;41800.66;4986526;28;20235;-63
2023/11/11 05:49:08;;;;;;;4.43;2.00;;;6.00;99.90;;;-141.84;98.93;48370.84;4981917;28;20694;-62
2023/11/11 05:51:37;;;;;;;4.60;2.20;;;5.90;99.90;;;-141.84;100.00;57553.00;4958791;28;20307;-63
2023/11/11 05:54:05;;;;;;;2.93;2.10;;;5.80;99.90;;;-141.84;99.09;52303.44;4974969;28;20215;-63
2023/11/11 05:56:33;;;;;;;2.80;2.33;;;5.90;99.90;;;-141.84;99.94;53877.56;4986609;28;20227;-63
2023/11/11 05:59:04;;;;;;;5.07;2.50;;;5.80;99.90;;;-141.84;100.00;56765.13;4986074;28;20278;-62
2023/11/11 06:01:33;;;;;;;3.37;2.50;;;5.80;99.90;;;-141.84;100.00;61231.81;4978523;28;20703;-63
2023/11/11 06:04:01;;;;;;;2.17;1.97;;;5.80;99.90;;;-141.84;100.00;63598.59;4985732;28;20561;-63
2023/11/11 06:06:30;;;;;;;5.10;2.40;;;5.70;99.90;;;-141.84;99.97;54664.88;4985779;28;20254;-63
2023/11/11 06:08:58;;;;;;;3.13;2.03;;;5.80;99.90;;;-141.84;100.00;63072.50;4986175;28;20261;-63
2023/11/11 06:11:26;;;;;;;3.57;2.13;;;5.80;99.90;;;-141.84;100.00;63861.66;4979027;28;20230;-63
2023/11/11 06:13:57;;;;;;;3.37;2.30;;;5.80;99.90;;;-141.84;97.10;41250.91;4985094;28;20604;-64
2023/11/11 06:16:26;;;;;;;3.27;2.03;;;5.90;99.90;;;-141.84;98.16;43395.16;4974243;28;20232;-63
2023/11/11 06:18:55;;;;;;;3.30;1.97;;;5.90;99.90;;;-141.84;98.69;49419.16;4965924;28;20247;-63
2023/11/11 06:21:23;;;;;;;3.83;2.50;;;5.90;99.90;;;-141.84;96.14;34082.66;4962472;28;20302;-65
2023/11/11 06:23:52;;;;;;;4.00;2.27;;;6.00;99.90;;;-141.84;96.50;33332.09;4972527;28;20487;-63
2023/11/11 06:26:21;;;;;;;2.50;2.17;;;6.00;99.90;;;-141.84;98.84;46536.97;4985690;28;20268;-63
2023/11/11 06:28:51;;;;;;;3.37;2.40;;;6.00;99.90;;;-141.84;98.59;47322.81;4984797;28;20733;-62
2023/11/11 06:31:20;;;;;;;2.73;2.03;;;6.00;99.90;;;-141.84;99.31;50205.56;4985471;28;20242;-62
2023/11/11 06:33:48;;;;;;;3.63;2.67;;;6.00;99.90;;;-141.84;97.58;42037.75;4980891;28;20231;-63
2023/11/11 06:36:18;;;;;;;5.90;2.40;;;6.10;99.90;;;-141.84;96.60;34564.06;4984644;28;20298;-62
2023/11/11 06:38:47;;;;;;;3.47;2.63;;;6.10;99.90;;;-141.84;94.67;27204.41;4986173;28;20233;-63
2023/11/11 06:41:15;;;;;;;2.47;2.10;;;6.20;99.90;;;-141.84;95.86;30233.41;4985129;28;20262;-64
2023/11/11 06:43:43;;;;;;;3.30;2.40;;;6.20;99.90;;;-141.84;95.70;31228.00;4977928;28;20752;-63
2023/11/11 06:46:12;;;;;;;3.17;2.77;;;6.30;99.90;;;-141.84;92.10;22847.28;4984892;28;20266;-62
2023/11/11 06:48:41;;;;;;;3.67;2.07;;;6.40;99.90;;;-141.84;92.04;21783.69;4984612;28;20227;-62
2023/11/11 06:51:09;;;;;;;3.20;2.20;;;6.50;99.90;;;-141.84;93.80;24297.78;4979860;28;20329;-63
2023/11/11 06:53:38;;;;;;;3.10;2.30;;;6.50;99.90;;;-141.84;93.56;24096.34;4977285;28;20219;-63
2023/11/11 06:56:07;;;;;;;4.00;2.30;;;6.60;99.90;;;-141.84;93.76;24849.22;4984941;28;20727;-63
2023/11/11 06:58:35;;;;;;;3.33;2.47;;;6.60;99.90;;;-141.84;93.49;24411.72;4984629;28;20310;-64
2023/11/11 07:01:05;;;;;;;2.40;2.00;;;6.70;99.90;;;-141.84;92.68;22932.72;4984189;28;20251;-63
2023/11/11 07:03:35;;;;;;;3.37;2.23;;;6.70;99.90;;;-141.84;90.78;20988.72;4977751;28;20703;-62
2023/11/11 07:06:05;;;;;;;5.67;2.40;;;6.80;99.90;;;-141.84;90.21;20598.41;4984698;28;20222;-63
2023/11/11 07:08:34;;;;;;;3.00;2.23;;;6.80;99.90;;;-141.84;91.39;21218.44;4984756;28;20310;-63
2023/11/11 07:11:04;;;;;;;3.73;2.30;;;6.80;99.90;;;-141.84;91.52;21350.59;4985003;28;20751;-63
2023/11/11 07:13:32;;;;;;;3.10;2.67;;;6.80;99.90;;;-141.84;90.45;20620.78;4977877;28;20235;-63
2023/11/11 07:16:00;;;;;;;3.03;2.30;;;6.90;99.90;;;-141.84;90.41;20671.59;4976421;28;20243;-63
2023/11/11 07:18:29;;;;;;;6.87;2.80;;;6.80;99.90;;;-141.84;89.39;20167.47;4965781;28;20224;-63
2023/11/11 07:20:57;;;;;;;3.33;2.47;;;6.80;99.90;;;-141.84;89.13;20098.38;4964972;28;20208;-63
2023/11/11 07:23:26;;;;;;;3.93;2.50;;;6.90;99.90;;;-141.84;88.42;19954.06;4960436;28;20303;-62
2023/11/11 07:25:56;;;;;;;4.63;2.60;;;6.80;99.90;;;-141.84;87.62;19736.59;4984469;28;20321;-62
2023/11/11 07:28:27;;;;;;;5.40;3.00;;;6.90;99.90;;;-141.84;86.74;19673.59;4984553;28;20286;-62
2023/11/11 07:30:54;;;;;;;3.10;2.70;;;7.00;99.90;;;-141.84;84.48;19456.16;4984627;28;20322;-63
2023/11/11 07:33:22;;;;;;;4.03;2.63;;;7.10;99.90;;;-141.84;84.46;19403.31;4983312;28;20310;-63
2023/11/11 07:35:50;;;;;;;5.23;2.70;;;7.20;99.90;;;-141.84;82.81;19348.47;4981226;28;20215;-63
2023/11/11 07:38:20;;;;;;;4.53;3.00;;;7.30;99.90;;;-141.84;82.72;19366.75;4984326;28;20234;-63
2023/11/11 07:40:48;;;;;;;3.43;2.80;;;7.30;99.90;;;-141.84;84.65;19437.88;4984155;28;20385;-62
2023/11/11 07:43:16;;;;;;;4.37;2.97;;;7.30;99.90;;;-141.84;86.79;19635.00;4984251;28;20314;-63
2023/11/11 07:45:48;;;;;;;4.97;2.97;;;7.40;99.90;;;-141.84;84.28;19466.31;4976568;28;20246;-63
2023/11/11 07:48:18;;;;;;;4.60;2.90;;;7.50;99.90;;;-141.84;83.03;19397.22;4963886;28;20726;-63
2023/11/11 07:50:46;;;;;;;4.33;2.87;;;7.60;99.90;;;-141.84;80.06;19250.91;4982246;28;20207;-62
2023/11/11 07:53:18;;;;;;;5.47;3.00;;;7.80;99.90;;;-141.84;79.91;19267.16;4994418;28;20305;-64
2023/11/11 07:55:46;;;;;;;5.43;3.40;;;7.90;99.90;;;-141.84;81.39;19281.41;4976236;28;20328;-63
2023/11/11 07:58:15;;;;;;;5.30;2.63;;;7.90;99.90;;;-141.84;82.58;19391.13;4996495;28;20277;-63
2023/11/11 08:00:47;;;;;;;3.13;2.80;;;8.00;99.90;;;-141.84;81.11;19311.88;5006276;28;20234;-63
2023/11/11 08:03:15;;;;;;;5.73;3.00;;;8.00;99.90;;;-141.84;80.09;19216.38;4990208;28;20204;-63
2023/11/11 08:05:44;;;;;;;4.93;2.90;;;8.00;99.90;;;-141.84;79.63;19265.13;4976156;28;20234;-63
2023/11/11 08:08:12;;;;;;;5.20;3.47;;;8.10;99.90;;;-141.84;80.50;19281.41;5003338;28;20234;-63
2023/11/11 08:10:46;;;;;;;5.70;2.97;;;8.10;99.90;;;-141.84;80.49;19293.59;5002750;28;20737;-64
2023/11/11 08:13:16;;;;;;;3.87;3.10;;;8.20;99.90;;;-141.84;79.26;19261.06;4986567;28;20320;-65
2023/11/11 08:15:45;;;;;;;4.37;2.97;;;8.20;99.90;;;-141.84;79.56;19287.50;4969698;28;20236;-64
2023/11/11 08:18:14;;;;;;;4.90;3.70;;;8.20;99.90;;;-141.84;78.08;19267.16;4964540;28;20224;-63
2023/11/11 08:20:43;;;;;;;4.00;3.03;;;8.40;99.90;;;-141.84;76.05;19214.34;4964427;28;20223;-63
2023/11/11 08:23:11;;;;;;;3.57;3.00;;;8.50;99.90;;;-141.84;76.18;19206.22;4964993;28;20723;-63
2023/11/11 08:25:39;;;;;;;4.57;3.30;;;8.50;99.90;;;-141.84;74.93;19230.59;4956655;28;20264;-63
2023/11/11 08:28:08;;;;;;;3.73;2.73;;;8.70;99.90;;;-141.84;73.75;19226.53;4976827;28;20231;-63
2023/11/11 08:30:37;;;;;;;5.13;3.20;;;8.70;99.90;;;-141.84;73.93;19216.38;4994265;28;20302;-62
2023/11/11 08:33:08;;;;;;;3.23;2.83;;;8.80;99.90;;;-141.84;73.44;19232.63;4984167;28;20563;-63
2023/11/11 08:35:37;;;;;;;3.87;3.20;;;8.80;99.90;;;-141.84;74.81;19269.22;4982097;28;20227;-62
2023/11/11 08:38:06;;;;;;;4.60;3.37;;;8.80;99.90;;;-141.84;76.01;19252.94;4984263;28;20263;-63
2023/11/11 08:40:34;;;;;;;5.80;3.00;;;8.80;99.90;;;-141.84;76.60;19269.22;4977802;28;20242;-62
2023/11/11 08:43:02;;;;;;;4.00;2.90;;;8.80;99.90;;;-141.84;76.81;19283.44;4977162;28;20323;-63
2023/11/11 08:45:31;;;;;;;4.00;3.07;;;8.80;99.90;;;-141.84;77.33;19273.28;4974898;28;20390;-63
2023/11/11 08:47:59;;;;;;;5.33;2.90;;;8.80;99.90;;;-141.84;79.56;19303.75;4993511;28;20230;-64
2023/11/11 08:50:28;;;;;;;3.37;3.03;;;8.70;99.90;;;-141.84;81.63;19393.16;4986570;28;20235;-64
2023/11/11 08:52:57;;;;;;;4.07;3.10;;;8.60;99.90;;;-141.84;83.04;19448.03;4973864;28;20275;-63
2023/11/11 08:55:26;;;;;;;4.63;3.23;;;8.60;99.90;;;-141.84;84.68;19553.72;4969595;28;20222;-64
2023/11/11 08:57:54;;;;;;;4.07;3.10;;;8.40;99.90;;;-141.84;86.37;19742.72;4989062;28;20800;-63
2023/11/11 09:00:25;;;;;;;8.23;3.27;;;8.40;99.90;;;-141.84;85.36;19708.16;5000335;28;20422;-63
2023/11/11 09:02:54;;;;;;;3.77;2.97;;;8.30;99.90;;;-141.84;83.84;19561.84;4989652;28;20215;-62
2023/11/11 09:05:23;;;;;;;4.07;2.80;;;8.40;99.90;;;-141.84;84.78;19620.78;4986534;28;20245;-62
2023/11/11 09:07:51;;;;;;;4.40;2.67;;;8.40;99.90;;;-141.84;86.45;19793.50;4988583;28;20231;-64
2023/11/11 09:10:21;;;;;;;4.13;3.20;;;8.30;99.90;;;-141.84;85.58;19756.94;4988353;28;20665;-63
2023/11/11 09:12:50;;;;;;;3.37;2.70;;;8.30;99.90;;;-141.84;85.14;19653.28;5003912;28;20689;-63
2023/11/11 09:15:19;;;;;;;3.20;2.67;;;8.20;99.90;;;-141.84;86.87;19874.81;5001760;28;20203;-62
2023/11/11 09:17:48;;;;;;;3.93;3.10;;;8.20;99.90;;;-141.84;88.73;20311.78;4990929;28;20215;-64
2023/11/11 09:20:17;;;;;;;3.50;2.50;;;8.20;99.90;;;-141.84;89.48;20708.19;4988185;28;20245;-64
2023/11/11 09:22:45;;;;;;;3.43;3.00;;;8.30;99.90;;;-141.84;88.82;20539.47;4988674;28;20269;-63
2023/11/11 09:25:14;;;;;;;3.87;3.00;;;8.30;99.90;;;-141.84;88.73;20525.22;4988208;28;20334;-62
2023/11/11 09:27:44;;;;;;;3.27;2.83;;;8.40;99.90;;;-141.84;88.38;20256.91;4981404;28;20235;-64
2023/11/11 09:30:13;;;;;;;2.60;2.40;;;8.40;99.90;;;-141.84;86.25;19870.75;4987588;28;20207;-63
2023/11/11 09:32:41;;;;;;;4.97;2.43;;;8.40;99.90;;;-141.84;86.68;19872.78;4987668;28;20730;-63
2023/11/11 09:35:13;;;;;;;3.97;2.60;;;8.40;99.90;;;-141.84;89.70;20771.19;4988378;28;20313;-64
2023/11/11 09:37:48;;;;;;;4.10;2.87;;;8.30;99.90;;;-141.84;89.49;20761.03;4983987;28;20425;-64
2023/11/11 09:40:17;;;;;;;4.37;2.60;;;8.20;99.90;;;-141.84;91.78;22367.31;4989177;28;20230;-62
2023/11/11 09:42:47;;;;;;;3.07;2.50;;;8.10;99.90;;;-141.84;91.76;22586.97;4987768;28;20258;-62
2023/11/11 09:45:15;;;;;;;4.97;2.77;;;8.10;99.90;;;-141.84;94.14;26992.63;4987952;28;20246;-62
2023/11/11 09:47:52;;;;;;;3.73;3.00;;;8.10;99.90;;;-141.84;93.25;25528.94;4982069;28;20331;-63
2023/11/11 09:50:24;;;;;;;4.37;2.73;;;8.10;99.90;;;-141.84;91.04;22111.09;5001301;28;20226;-62
2023/11/11 09:52:54;;;;;;;3.37;2.73;;;8.20;99.90;;;-141.84;92.65;24069.88;5007565;28;20841;-61
2023/11/11 09:55:23;;;;;;;3.30;2.40;;;8.20;99.90;;;-141.84;93.42;25870.91;5005832;28;20280;-63
2023/11/11 09:57:53;;;;;;;3.37;2.40;;;8.20;99.90;;;-141.84;91.76;22782.22;5006677;28;20322;-63
2023/11/11 10:00:22;;;;;;;3.67;2.20;;;8.20;99.90;;;-141.84;93.51;25752.84;5007847;28;20213;-64
2023/11/11 10:02:50;;;;;;;2.50;2.30;;;8.30;99.90;;;-141.84;93.76;27070.00;5007603;28;20721;-63
2023/11/11 10:05:20;;;;;;;2.77;2.10;;;8.30;99.90;;;-141.84;94.49;29410.25;5006769;28;20231;-64
2023/11/11 10:07:48;;;;;;;2.60;1.70;;;8.20;99.90;;;-141.84;92.76;24769.84;5002908;28;20235;-63
2023/11/11 10:10:17;;;;;;;1.83;1.40;;;8.10;99.90;;;-141.84;89.40;20728.50;4990630;28;20573;-64
2023/11/11 10:12:46;;;;;;;1.97;1.40;;;8.10;99.90;;;-141.84;89.54;20632.97;4987852;28;20314;-63
2023/11/11 10:15:16;;;;;;;2.40;1.40;;;8.10;99.90;;;-141.84;90.92;21358.75;4984588;28;20254;-63
2023/11/11 10:17:45;;;;;;;1.27;1.17;;;8.00;99.90;;;-141.84;92.11;22749.66;4961645;28;20652;-62
2023/11/11 10:20:15;;;;;;;1.73;1.30;;;7.90;99.90;;;-141.84;94.19;26811.44;4967682;28;20555;-63
2023/11/11 10:22:46;;;;;;;1.53;1.20;;;7.90;99.90;;;-141.84;95.09;30355.69;4968172;28;20230;-64
2023/11/11 10:25:17;;;;;;;1.50;1.40;;;7.90;99.90;;;-141.84;98.92;52565.75;4969405;28;20306;-64
2023/11/11 10:27:50;;;;;;;1.50;0.97;;;7.80;99.90;;;-141.84;98.70;53615.19;4960687;28;20567;-63
2023/11/11 10:30:24;;;;;;;1.17;1.03;;;7.90;99.90;;;-141.84;97.50;46536.97;4976734;28;20242;-64
2023/11/11 10:32:54;;;;;;;2.07;1.20;;;7.80;99.90;;;-141.84;99.54;57027.72;4992467;28;20658;-65
2023/11/11 10:35:24;;;;;;;1.03;0.80;;;7.80;99.90;;;-141.84;98.75;53877.56;4986084;28;20227;-64
2023/11/11 10:37:54;;;;;;;1.67;1.07;;;7.70;99.90;;;-141.84;99.42;57027.72;4967591;28;20227;-65
2023/11/11 10:40:23;;;;;;;1.60;1.00;;;7.70;99.90;;;-141.84;97.68;46798.88;4981205;28;20223;-67